sensor_id;sensor_type;location;lat;lon;timestamp;P1;durP1;ratioP1;P2;durP2;ratioP2
5801;SDS011;2927;49.366;8.530;2024-01-30T00:01:19;15.10;;;7.20;;
5801;SDS011;2927;49.366;8.530;2024-01-30T00:03:44;10.10;;;7.40;;
5801;SDS011;2927;49.366;8.530;2024-01-30T00:06:11;15.97;;;7.50;;
5801;SDS011;2927;49.366;8.530;2024-01-30T00:08:37;17.47;;;6.90;;
5801;SDS011;2927;49.366;8.530;2024-01-30T00:11:02;15.80;;;7.90;;
5801;SDS011;2927;49.366;8.530;2024-01-30T00:13:28;13.40;;;6.60;;
5801;SDS011;2927;49.366;8.530;2024-01-30T00:15:53;14.87;;;7.80;;
5801;SDS011;2927;49.366;8.530;2024-01-30T00:18:19;9.07;;;7.20;;
5801;SDS011;2927;49.366;8.530;2024-01-30T00:20:45;10.17;;;6.60;;
5801;SDS011;2927;49.366;8.530;2024-01-30T00:23:10;15.13;;;7.00;;
5801;SDS011;2927;49.366;8.530;2024-01-30T00:25:36;8.67;;;5.60;;
5801;SDS011;2927;49.366;8.530;2024-01-30T00:28:01;11.13;;;6.57;;
5801;SDS011;2927;49.366;8.530;2024-01-30T00:30:27;12.67;;;7.50;;
5801;SDS011;2927;49.366;8.530;2024-01-30T00:32:53;10.90;;;6.23;;
5801;SDS011;2927;49.366;8.530;2024-01-30T00:35:19;8.57;;;5.63;;
5801;SDS011;2927;49.366;8.530;2024-01-30T00:37:45;9.80;;;5.67;;
5801;SDS011;2927;49.366;8.530;2024-01-30T00:40:10;9.80;;;6.40;;
5801;SDS011;2927;49.366;8.530;2024-01-30T00:42:40;7.43;;;5.07;;
5801;SDS011;2927;49.366;8.530;2024-01-30T00:45:11;9.80;;;5.27;;
5801;SDS011;2927;49.366;8.530;2024-01-30T00:47:40;9.50;;;5.67;;
5801;SDS011;2927;49.366;8.530;2024-01-30T00:50:05;8.90;;;5.90;;
5801;SDS011;2927;49.366;8.530;2024-01-30T00:52:31;9.30;;;6.37;;
5801;SDS011;2927;49.366;8.530;2024-01-30T00:54:58;10.93;;;5.80;;
5801;SDS011;2927;49.366;8.530;2024-01-30T00:57:23;9.83;;;5.43;;
5801;SDS011;2927;49.366;8.530;2024-01-30T00:59:49;13.57;;;5.83;;
5801;SDS011;2927;49.366;8.530;2024-01-30T01:02:15;7.97;;;5.53;;
5801;SDS011;2927;49.366;8.530;2024-01-30T01:04:42;6.70;;;5.30;;
5801;SDS011;2927;49.366;8.530;2024-01-30T01:07:07;9.10;;;5.23;;
5801;SDS011;2927;49.366;8.530;2024-01-30T01:09:33;8.40;;;5.87;;
5801;SDS011;2927;49.366;8.530;2024-01-30T01:11:59;7.93;;;5.93;;
5801;SDS011;2927;49.366;8.530;2024-01-30T01:14:24;12.67;;;6.57;;
5801;SDS011;2927;49.366;8.530;2024-01-30T01:16:50;10.60;;;4.90;;
5801;SDS011;2927;49.366;8.530;2024-01-30T01:19:15;10.60;;;5.97;;
5801;SDS011;2927;49.366;8.530;2024-01-30T01:21:41;9.63;;;5.73;;
5801;SDS011;2927;49.366;8.530;2024-01-30T01:24:06;13.27;;;5.97;;
5801;SDS011;2927;49.366;8.530;2024-01-30T01:26:32;7.23;;;4.57;;
5801;SDS011;2927;49.366;8.530;2024-01-30T01:28:58;11.47;;;6.23;;
5801;SDS011;2927;49.366;8.530;2024-01-30T01:31:23;9.77;;;6.03;;
5801;SDS011;2927;49.366;8.530;2024-01-30T01:33:49;7.10;;;4.90;;
5801;SDS011;2927;49.366;8.530;2024-01-30T01:36:15;15.33;;;6.00;;
5801;SDS011;2927;49.366;8.530;2024-01-30T01:38:41;13.10;;;5.10;;
5801;SDS011;2927;49.366;8.530;2024-01-30T01:41:06;9.70;;;5.43;;
5801;SDS011;2927;49.366;8.530;2024-01-30T01:43:32;11.80;;;5.87;;
5801;SDS011;2927;49.366;8.530;2024-01-30T01:45:57;11.13;;;4.80;;
5801;SDS011;2927;49.366;8.530;2024-01-30T01:48:23;7.97;;;5.30;;
5801;SDS011;2927;49.366;8.530;2024-01-30T01:50:49;12.20;;;4.90;;
5801;SDS011;2927;49.366;8.530;2024-01-30T01:53:15;11.77;;;5.87;;
5801;SDS011;2927;49.366;8.530;2024-01-30T01:55:41;12.20;;;6.13;;
5801;SDS011;2927;49.366;8.530;2024-01-30T01:58:07;9.20;;;5.00;;
5801;SDS011;2927;49.366;8.530;2024-01-30T02:00:34;7.50;;;5.10;;
5801;SDS011;2927;49.366;8.530;2024-01-30T02:03:04;10.03;;;6.03;;
5801;SDS011;2927;49.366;8.530;2024-01-30T02:05:30;15.07;;;6.00;;
5801;SDS011;2927;49.366;8.530;2024-01-30T02:07:57;13.07;;;6.30;;
5801;SDS011;2927;49.366;8.530;2024-01-30T02:10:23;8.20;;;5.00;;
5801;SDS011;2927;49.366;8.530;2024-01-30T02:12:49;10.73;;;5.80;;
5801;SDS011;2927;49.366;8.530;2024-01-30T02:15:15;13.20;;;5.70;;
5801;SDS011;2927;49.366;8.530;2024-01-30T02:17:40;5.57;;;4.40;;
5801;SDS011;2927;49.366;8.530;2024-01-30T02:20:06;6.00;;;4.67;;
5801;SDS011;2927;49.366;8.530;2024-01-30T02:22:32;9.77;;;5.30;;
5801;SDS011;2927;49.366;8.530;2024-01-30T02:25:00;10.73;;;5.40;;
5801;SDS011;2927;49.366;8.530;2024-01-30T02:27:25;6.90;;;4.80;;
5801;SDS011;2927;49.366;8.530;2024-01-30T02:29:51;10.27;;;4.77;;
5801;SDS011;2927;49.366;8.530;2024-01-30T02:32:17;6.70;;;4.70;;
5801;SDS011;2927;49.366;8.530;2024-01-30T02:34:42;10.20;;;5.03;;
5801;SDS011;2927;49.366;8.530;2024-01-30T02:37:08;8.37;;;5.50;;
5801;SDS011;2927;49.366;8.530;2024-01-30T02:39:33;9.90;;;5.10;;
5801;SDS011;2927;49.366;8.530;2024-01-30T02:41:59;8.23;;;5.30;;
5801;SDS011;2927;49.366;8.530;2024-01-30T02:44:25;8.57;;;4.93;;
5801;SDS011;2927;49.366;8.530;2024-01-30T02:46:50;7.43;;;5.13;;
5801;SDS011;2927;49.366;8.530;2024-01-30T02:49:16;8.70;;;4.57;;
5801;SDS011;2927;49.366;8.530;2024-01-30T02:51:41;8.13;;;5.23;;
5801;SDS011;2927;49.366;8.530;2024-01-30T02:54:07;15.00;;;5.70;;
5801;SDS011;2927;49.366;8.530;2024-01-30T02:56:32;11.67;;;5.60;;
5801;SDS011;2927;49.366;8.530;2024-01-30T02:58:58;11.40;;;4.83;;
5801;SDS011;2927;49.366;8.530;2024-01-30T03:01:23;15.90;;;5.40;;
5801;SDS011;2927;49.366;8.530;2024-01-30T03:03:49;6.57;;;4.50;;
5801;SDS011;2927;49.366;8.530;2024-01-30T03:06:15;11.07;;;6.10;;
5801;SDS011;2927;49.366;8.530;2024-01-30T03:08:42;15.33;;;5.30;;
5801;SDS011;2927;49.366;8.530;2024-01-30T03:11:08;6.37;;;4.30;;
5801;SDS011;2927;49.366;8.530;2024-01-30T03:13:33;10.67;;;5.27;;
5801;SDS011;2927;49.366;8.530;2024-01-30T03:15:59;14.57;;;5.53;;
5801;SDS011;2927;49.366;8.530;2024-01-30T03:18:24;8.43;;;5.23;;
5801;SDS011;2927;49.366;8.530;2024-01-30T03:20:50;6.57;;;4.60;;
5801;SDS011;2927;49.366;8.530;2024-01-30T03:23:15;10.50;;;5.37;;
5801;SDS011;2927;49.366;8.530;2024-01-30T03:25:41;9.53;;;4.90;;
5801;SDS011;2927;49.366;8.530;2024-01-30T03:28:06;9.03;;;4.37;;
5801;SDS011;2927;49.366;8.530;2024-01-30T03:30:32;6.20;;;4.40;;
5801;SDS011;2927;49.366;8.530;2024-01-30T03:32:59;9.80;;;4.90;;
5801;SDS011;2927;49.366;8.530;2024-01-30T03:35:24;9.40;;;5.20;;
5801;SDS011;2927;49.366;8.530;2024-01-30T03:37:50;12.90;;;5.00;;
5801;SDS011;2927;49.366;8.530;2024-01-30T03:40:15;8.80;;;5.70;;
5801;SDS011;2927;49.366;8.530;2024-01-30T03:42:41;10.27;;;5.10;;
5801;SDS011;2927;49.366;8.530;2024-01-30T03:45:07;5.60;;;3.90;;
5801;SDS011;2927;49.366;8.530;2024-01-30T03:47:33;10.00;;;6.30;;
5801;SDS011;2927;49.366;8.530;2024-01-30T03:49:58;10.13;;;6.30;;
5801;SDS011;2927;49.366;8.530;2024-01-30T03:52:24;14.00;;;5.93;;
5801;SDS011;2927;49.366;8.530;2024-01-30T03:54:49;9.60;;;4.87;;
5801;SDS011;2927;49.366;8.530;2024-01-30T03:57:15;11.80;;;5.63;;
5801;SDS011;2927;49.366;8.530;2024-01-30T03:59:43;8.70;;;4.77;;
5801;SDS011;2927;49.366;8.530;2024-01-30T04:02:10;10.33;;;6.50;;
5801;SDS011;2927;49.366;8.530;2024-01-30T04:04:36;11.27;;;5.47;;
5801;SDS011;2927;49.366;8.530;2024-01-30T04:07:02;9.83;;;5.47;;
5801;SDS011;2927;49.366;8.530;2024-01-30T04:09:27;8.30;;;5.60;;
5801;SDS011;2927;49.366;8.530;2024-01-30T04:11:53;11.17;;;5.23;;
5801;SDS011;2927;49.366;8.530;2024-01-30T04:14:19;9.80;;;5.90;;
5801;SDS011;2927;49.366;8.530;2024-01-30T04:16:44;10.73;;;6.93;;
5801;SDS011;2927;49.366;8.530;2024-01-30T04:19:10;12.77;;;5.50;;
5801;SDS011;2927;49.366;8.530;2024-01-30T04:21:35;13.63;;;6.20;;
5801;SDS011;2927;49.366;8.530;2024-01-30T04:24:01;9.30;;;4.83;;
5801;SDS011;2927;49.366;8.530;2024-01-30T04:26:27;10.80;;;6.33;;
5801;SDS011;2927;49.366;8.530;2024-01-30T04:28:52;9.43;;;6.63;;
5801;SDS011;2927;49.366;8.530;2024-01-30T04:31:18;11.10;;;6.47;;
5801;SDS011;2927;49.366;8.530;2024-01-30T04:33:43;10.43;;;6.33;;
5801;SDS011;2927;49.366;8.530;2024-01-30T04:36:09;15.27;;;8.20;;
5801;SDS011;2927;49.366;8.530;2024-01-30T04:38:38;21.27;;;9.77;;
5801;SDS011;2927;49.366;8.530;2024-01-30T04:41:04;9.77;;;6.03;;
5801;SDS011;2927;49.366;8.530;2024-01-30T04:43:29;10.20;;;5.80;;
5801;SDS011;2927;49.366;8.530;2024-01-30T04:45:55;11.03;;;5.60;;
5801;SDS011;2927;49.366;8.530;2024-01-30T04:48:21;12.53;;;7.13;;
5801;SDS011;2927;49.366;8.530;2024-01-30T04:50:47;12.77;;;6.30;;
5801;SDS011;2927;49.366;8.530;2024-01-30T04:53:12;11.23;;;5.60;;
5801;SDS011;2927;49.366;8.530;2024-01-30T04:55:38;14.73;;;7.30;;
5801;SDS011;2927;49.366;8.530;2024-01-30T04:58:03;12.20;;;9.53;;
5801;SDS011;2927;49.366;8.530;2024-01-30T05:00:29;14.37;;;8.80;;
5801;SDS011;2927;49.366;8.530;2024-01-30T05:02:55;14.13;;;6.70;;
5801;SDS011;2927;49.366;8.530;2024-01-30T05:05:20;8.97;;;6.67;;
5801;SDS011;2927;49.366;8.530;2024-01-30T05:07:47;10.63;;;5.63;;
5801;SDS011;2927;49.366;8.530;2024-01-30T05:10:13;10.83;;;6.17;;
5801;SDS011;2927;49.366;8.530;2024-01-30T05:12:39;9.50;;;5.80;;
5801;SDS011;2927;49.366;8.530;2024-01-30T05:15:05;9.43;;;5.70;;
5801;SDS011;2927;49.366;8.530;2024-01-30T05:17:31;11.63;;;5.77;;
5801;SDS011;2927;49.366;8.530;2024-01-30T05:19:56;14.07;;;5.67;;
5801;SDS011;2927;49.366;8.530;2024-01-30T05:22:22;16.40;;;5.57;;
5801;SDS011;2927;49.366;8.530;2024-01-30T05:24:48;14.43;;;6.20;;
5801;SDS011;2927;49.366;8.530;2024-01-30T05:27:13;10.63;;;6.23;;
5801;SDS011;2927;49.366;8.530;2024-01-30T05:29:39;8.23;;;5.50;;
5801;SDS011;2927;49.366;8.530;2024-01-30T05:32:06;11.20;;;6.30;;
5801;SDS011;2927;49.366;8.530;2024-01-30T05:34:31;8.70;;;5.73;;
5801;SDS011;2927;49.366;8.530;2024-01-30T05:36:57;9.13;;;6.10;;
5801;SDS011;2927;49.366;8.530;2024-01-30T05:39:23;11.50;;;6.93;;
5801;SDS011;2927;49.366;8.530;2024-01-30T05:41:49;10.40;;;6.50;;
5801;SDS011;2927;49.366;8.530;2024-01-30T05:44:14;6.63;;;5.60;;
5801;SDS011;2927;49.366;8.530;2024-01-30T05:46:40;12.10;;;6.13;;
5801;SDS011;2927;49.366;8.530;2024-01-30T05:49:05;10.73;;;6.53;;
5801;SDS011;2927;49.366;8.530;2024-01-30T05:51:31;18.73;;;6.17;;
5801;SDS011;2927;49.366;8.530;2024-01-30T05:53:56;8.57;;;6.00;;
5801;SDS011;2927;49.366;8.530;2024-01-30T05:56:22;12.23;;;6.00;;
5801;SDS011;2927;49.366;8.530;2024-01-30T05:58:48;10.87;;;5.97;;
5801;SDS011;2927;49.366;8.530;2024-01-30T06:01:15;11.80;;;5.97;;
5801;SDS011;2927;49.366;8.530;2024-01-30T06:03:40;10.73;;;6.73;;
5801;SDS011;2927;49.366;8.530;2024-01-30T06:06:08;9.60;;;6.10;;
5801;SDS011;2927;49.366;8.530;2024-01-30T06:08:34;18.33;;;6.33;;
5801;SDS011;2927;49.366;8.530;2024-01-30T06:10:59;11.30;;;6.57;;
5801;SDS011;2927;49.366;8.530;2024-01-30T06:13:25;11.07;;;6.47;;
5801;SDS011;2927;49.366;8.530;2024-01-30T06:15:51;10.60;;;6.30;;
5801;SDS011;2927;49.366;8.530;2024-01-30T06:18:17;12.43;;;6.63;;
5801;SDS011;2927;49.366;8.530;2024-01-30T06:20:43;12.57;;;7.00;;
5801;SDS011;2927;49.366;8.530;2024-01-30T06:23:08;11.13;;;5.90;;
5801;SDS011;2927;49.366;8.530;2024-01-30T06:25:34;12.83;;;6.20;;
5801;SDS011;2927;49.366;8.530;2024-01-30T06:27:59;9.30;;;5.67;;
5801;SDS011;2927;49.366;8.530;2024-01-30T06:30:25;10.10;;;6.40;;
5801;SDS011;2927;49.366;8.530;2024-01-30T06:32:51;13.13;;;6.40;;
5801;SDS011;2927;49.366;8.530;2024-01-30T06:35:16;11.37;;;6.43;;
5801;SDS011;2927;49.366;8.530;2024-01-30T06:37:42;10.37;;;6.40;;
5801;SDS011;2927;49.366;8.530;2024-01-30T06:40:08;9.67;;;6.30;;
5801;SDS011;2927;49.366;8.530;2024-01-30T06:42:34;10.53;;;5.23;;
5801;SDS011;2927;49.366;8.530;2024-01-30T06:45:00;9.70;;;5.73;;
5801;SDS011;2927;49.366;8.530;2024-01-30T06:47:25;11.53;;;7.10;;
5801;SDS011;2927;49.366;8.530;2024-01-30T06:49:51;8.57;;;5.93;;
5801;SDS011;2927;49.366;8.530;2024-01-30T06:52:17;10.00;;;5.53;;
5801;SDS011;2927;49.366;8.530;2024-01-30T06:54:42;7.73;;;6.00;;
5801;SDS011;2927;49.366;8.530;2024-01-30T06:57:08;11.87;;;6.40;;
5801;SDS011;2927;49.366;8.530;2024-01-30T06:59:36;10.10;;;5.40;;
5801;SDS011;2927;49.366;8.530;2024-01-30T07:02:02;9.70;;;5.23;;
5801;SDS011;2927;49.366;8.530;2024-01-30T07:04:28;9.30;;;6.10;;
5801;SDS011;2927;49.366;8.530;2024-01-30T07:06:53;12.40;;;6.40;;
5801;SDS011;2927;49.366;8.530;2024-01-30T07:09:19;9.57;;;5.97;;
5801;SDS011;2927;49.366;8.530;2024-01-30T07:11:45;12.10;;;7.70;;
5801;SDS011;2927;49.366;8.530;2024-01-30T07:14:10;14.60;;;6.00;;
5801;SDS011;2927;49.366;8.530;2024-01-30T07:16:36;13.40;;;6.40;;
5801;SDS011;2927;49.366;8.530;2024-01-30T07:19:01;17.40;;;6.90;;
5801;SDS011;2927;49.366;8.530;2024-01-30T07:21:27;9.17;;;6.60;;
5801;SDS011;2927;49.366;8.530;2024-01-30T07:23:56;11.17;;;6.57;;
5801;SDS011;2927;49.366;8.530;2024-01-30T07:26:22;12.00;;;7.10;;
5801;SDS011;2927;49.366;8.530;2024-01-30T07:28:48;15.23;;;7.43;;
5801;SDS011;2927;49.366;8.530;2024-01-30T07:31:15;13.03;;;8.33;;
5801;SDS011;2927;49.366;8.530;2024-01-30T07:33:41;17.43;;;8.50;;
5801;SDS011;2927;49.366;8.530;2024-01-30T07:36:06;18.87;;;8.40;;
5801;SDS011;2927;49.366;8.530;2024-01-30T07:38:32;14.47;;;8.33;;
5801;SDS011;2927;49.366;8.530;2024-01-30T07:40:58;11.50;;;7.50;;
5801;SDS011;2927;49.366;8.530;2024-01-30T07:43:23;11.37;;;7.40;;
5801;SDS011;2927;49.366;8.530;2024-01-30T07:45:49;11.13;;;6.77;;
5801;SDS011;2927;49.366;8.530;2024-01-30T07:48:14;9.53;;;5.80;;
5801;SDS011;2927;49.366;8.530;2024-01-30T07:50:40;12.03;;;7.40;;
5801;SDS011;2927;49.366;8.530;2024-01-30T07:53:06;15.67;;;7.87;;
5801;SDS011;2927;49.366;8.530;2024-01-30T07:55:31;17.27;;;7.30;;
5801;SDS011;2927;49.366;8.530;2024-01-30T07:57:57;9.70;;;6.30;;
5801;SDS011;2927;49.366;8.530;2024-01-30T08:00:26;9.87;;;6.90;;
5801;SDS011;2927;49.366;8.530;2024-01-30T08:02:52;10.73;;;7.00;;
5801;SDS011;2927;49.366;8.530;2024-01-30T08:05:20;11.00;;;6.70;;
5801;SDS011;2927;49.366;8.530;2024-01-30T08:07:47;8.30;;;6.00;;
5801;SDS011;2927;49.366;8.530;2024-01-30T08:10:13;21.80;;;7.40;;
5801;SDS011;2927;49.366;8.530;2024-01-30T08:12:39;8.97;;;6.37;;
5801;SDS011;2927;49.366;8.530;2024-01-30T08:15:05;11.27;;;6.07;;
5801;SDS011;2927;49.366;8.530;2024-01-30T08:17:31;9.90;;;6.30;;
5801;SDS011;2927;49.366;8.530;2024-01-30T08:19:56;8.30;;;5.93;;
5801;SDS011;2927;49.366;8.530;2024-01-30T08:22:22;7.10;;;5.30;;
5801;SDS011;2927;49.366;8.530;2024-01-30T08:24:47;9.73;;;6.17;;
5801;SDS011;2927;49.366;8.530;2024-01-30T08:27:13;7.80;;;5.40;;
5801;SDS011;2927;49.366;8.530;2024-01-30T08:29:38;9.23;;;6.03;;
5801;SDS011;2927;49.366;8.530;2024-01-30T08:32:05;11.90;;;6.77;;
5801;SDS011;2927;49.366;8.530;2024-01-30T08:34:31;11.37;;;6.20;;
5801;SDS011;2927;49.366;8.530;2024-01-30T08:36:57;10.27;;;6.10;;
5801;SDS011;2927;49.366;8.530;2024-01-30T08:39:23;13.10;;;7.10;;
5801;SDS011;2927;49.366;8.530;2024-01-30T08:41:48;10.63;;;5.80;;
5801;SDS011;2927;49.366;8.530;2024-01-30T08:44:14;16.70;;;6.40;;
5801;SDS011;2927;49.366;8.530;2024-01-30T08:46:40;9.50;;;5.93;;
5801;SDS011;2927;49.366;8.530;2024-01-30T08:49:06;13.53;;;7.10;;
5801;SDS011;2927;49.366;8.530;2024-01-30T08:51:31;12.83;;;7.47;;
5801;SDS011;2927;49.366;8.530;2024-01-30T08:53:57;11.60;;;7.30;;
5801;SDS011;2927;49.366;8.530;2024-01-30T08:56:22;11.00;;;6.43;;
5801;SDS011;2927;49.366;8.530;2024-01-30T08:58:48;9.87;;;6.60;;
5801;SDS011;2927;49.366;8.530;2024-01-30T09:01:14;9.27;;;6.47;;
5801;SDS011;2927;49.366;8.530;2024-01-30T09:03:39;10.73;;;6.67;;
5801;SDS011;2927;49.366;8.530;2024-01-30T09:06:09;10.87;;;7.07;;
5801;SDS011;2927;49.366;8.530;2024-01-30T09:08:35;10.60;;;6.40;;
5801;SDS011;2927;49.366;8.530;2024-01-30T09:11:00;11.73;;;7.90;;
5801;SDS011;2927;49.366;8.530;2024-01-30T09:13:27;10.07;;;7.10;;
5801;SDS011;2927;49.366;8.530;2024-01-30T09:15:53;13.37;;;6.87;;
5801;SDS011;2927;49.366;8.530;2024-01-30T09:18:18;16.87;;;8.37;;
5801;SDS011;2927;49.366;8.530;2024-01-30T09:20:44;11.60;;;7.57;;
5801;SDS011;2927;49.366;8.530;2024-01-30T09:23:12;12.77;;;7.10;;
5801;SDS011;2927;49.366;8.530;2024-01-30T09:25:38;17.63;;;7.20;;
5801;SDS011;2927;49.366;8.530;2024-01-30T09:28:03;13.60;;;7.23;;
5801;SDS011;2927;49.366;8.530;2024-01-30T09:30:29;12.70;;;6.93;;
5801;SDS011;2927;49.366;8.530;2024-01-30T09:32:55;11.10;;;7.30;;
5801;SDS011;2927;49.366;8.530;2024-01-30T09:35:20;10.93;;;6.63;;
5801;SDS011;2927;49.366;8.530;2024-01-30T09:37:46;11.40;;;6.80;;
5801;SDS011;2927;49.366;8.530;2024-01-30T09:40:12;10.50;;;7.10;;
5801;SDS011;2927;49.366;8.530;2024-01-30T09:42:38;11.10;;;7.07;;
5801;SDS011;2927;49.366;8.530;2024-01-30T09:45:05;14.60;;;6.87;;
5801;SDS011;2927;49.366;8.530;2024-01-30T09:47:31;11.17;;;7.00;;
5801;SDS011;2927;49.366;8.530;2024-01-30T09:50:02;11.77;;;6.90;;
5801;SDS011;2927;49.366;8.530;2024-01-30T09:52:28;12.87;;;6.10;;
5801;SDS011;2927;49.366;8.530;2024-01-30T09:54:54;14.40;;;7.40;;
5801;SDS011;2927;49.366;8.530;2024-01-30T09:57:20;7.97;;;5.97;;
5801;SDS011;2927;49.366;8.530;2024-01-30T09:59:46;11.47;;;7.10;;
5801;SDS011;2927;49.366;8.530;2024-01-30T10:02:11;11.10;;;6.87;;
5801;SDS011;2927;49.366;8.530;2024-01-30T10:04:37;11.70;;;6.87;;
5801;SDS011;2927;49.366;8.530;2024-01-30T10:07:03;12.77;;;7.33;;
5801;SDS011;2927;49.366;8.530;2024-01-30T10:09:31;12.60;;;7.30;;
5801;SDS011;2927;49.366;8.530;2024-01-30T10:11:57;14.27;;;7.00;;
5801;SDS011;2927;49.366;8.530;2024-01-30T10:14:23;11.80;;;7.10;;
5801;SDS011;2927;49.366;8.530;2024-01-30T10:16:48;10.83;;;6.90;;
5801;SDS011;2927;49.366;8.530;2024-01-30T10:19:14;13.33;;;7.00;;
5801;SDS011;2927;49.366;8.530;2024-01-30T10:21:40;15.23;;;6.57;;
5801;SDS011;2927;49.366;8.530;2024-01-30T10:24:05;11.03;;;6.97;;
5801;SDS011;2927;49.366;8.530;2024-01-30T10:26:31;10.60;;;6.90;;
5801;SDS011;2927;49.366;8.530;2024-01-30T10:28:59;10.30;;;6.80;;
5801;SDS011;2927;49.366;8.530;2024-01-30T10:31:25;13.23;;;6.77;;
5801;SDS011;2927;49.366;8.530;2024-01-30T10:33:50;15.00;;;6.93;;
5801;SDS011;2927;49.366;8.530;2024-01-30T10:36:16;13.37;;;7.20;;
5801;SDS011;2927;49.366;8.530;2024-01-30T10:38:42;13.60;;;7.07;;
5801;SDS011;2927;49.366;8.530;2024-01-30T10:41:11;18.20;;;7.90;;
5801;SDS011;2927;49.366;8.530;2024-01-30T10:43:40;12.60;;;7.13;;
5801;SDS011;2927;49.366;8.530;2024-01-30T10:46:11;14.03;;;8.23;;
5801;SDS011;2927;49.366;8.530;2024-01-30T10:48:44;12.97;;;7.30;;
5801;SDS011;2927;49.366;8.530;2024-01-30T10:51:15;9.77;;;6.60;;
5801;SDS011;2927;49.366;8.530;2024-01-30T10:53:43;11.97;;;7.27;;
5801;SDS011;2927;49.366;8.530;2024-01-30T10:56:11;14.97;;;7.90;;
5801;SDS011;2927;49.366;8.530;2024-01-30T10:58:37;10.77;;;7.03;;
5801;SDS011;2927;49.366;8.530;2024-01-30T11:01:03;10.00;;;7.00;;
5801;SDS011;2927;49.366;8.530;2024-01-30T11:03:30;14.07;;;7.37;;
5801;SDS011;2927;49.366;8.530;2024-01-30T11:05:59;11.70;;;7.03;;
5801;SDS011;2927;49.366;8.530;2024-01-30T11:08:26;13.10;;;8.30;;
5801;SDS011;2927;49.366;8.530;2024-01-30T11:10:56;13.70;;;7.70;;
5801;SDS011;2927;49.366;8.530;2024-01-30T11:13:26;13.93;;;7.83;;
5801;SDS011;2927;49.366;8.530;2024-01-30T11:15:55;16.27;;;7.47;;
5801;SDS011;2927;49.366;8.530;2024-01-30T11:18:24;10.20;;;7.50;;
5801;SDS011;2927;49.366;8.530;2024-01-30T11:20:51;11.50;;;7.07;;
5801;SDS011;2927;49.366;8.530;2024-01-30T11:23:17;9.30;;;6.23;;
5801;SDS011;2927;49.366;8.530;2024-01-30T11:25:43;10.70;;;7.60;;
5801;SDS011;2927;49.366;8.530;2024-01-30T11:28:16;16.53;;;7.83;;
5801;SDS011;2927;49.366;8.530;2024-01-30T11:30:42;12.67;;;7.70;;
5801;SDS011;2927;49.366;8.530;2024-01-30T11:33:11;14.03;;;7.20;;
5801;SDS011;2927;49.366;8.530;2024-01-30T11:35:41;14.70;;;8.60;;
5801;SDS011;2927;49.366;8.530;2024-01-30T11:38:08;12.77;;;8.77;;
5801;SDS011;2927;49.366;8.530;2024-01-30T11:40:36;15.03;;;8.20;;
5801;SDS011;2927;49.366;8.530;2024-01-30T11:43:03;12.43;;;8.00;;
5801;SDS011;2927;49.366;8.530;2024-01-30T11:45:30;13.13;;;8.60;;
5801;SDS011;2927;49.366;8.530;2024-01-30T11:47:56;14.63;;;8.10;;
5801;SDS011;2927;49.366;8.530;2024-01-30T11:50:22;13.43;;;7.70;;
5801;SDS011;2927;49.366;8.530;2024-01-30T11:52:49;12.37;;;8.03;;
5801;SDS011;2927;49.366;8.530;2024-01-30T11:55:15;11.93;;;7.57;;
5801;SDS011;2927;49.366;8.530;2024-01-30T11:57:42;13.30;;;7.80;;
5801;SDS011;2927;49.366;8.530;2024-01-30T12:00:16;12.07;;;7.40;;
5801;SDS011;2927;49.366;8.530;2024-01-30T12:02:43;14.20;;;8.03;;
5801;SDS011;2927;49.366;8.530;2024-01-30T12:05:09;15.23;;;8.10;;
5801;SDS011;2927;49.366;8.530;2024-01-30T12:07:35;11.50;;;7.87;;
5801;SDS011;2927;49.366;8.530;2024-01-30T12:10:01;16.17;;;7.53;;
5801;SDS011;2927;49.366;8.530;2024-01-30T12:12:28;14.27;;;8.40;;
5801;SDS011;2927;49.366;8.530;2024-01-30T12:14:56;13.00;;;7.73;;
5801;SDS011;2927;49.366;8.530;2024-01-30T12:17:29;14.00;;;7.57;;
5801;SDS011;2927;49.366;8.530;2024-01-30T12:20:08;12.43;;;7.43;;
5801;SDS011;2927;49.366;8.530;2024-01-30T12:22:46;14.77;;;7.83;;
5801;SDS011;2927;49.366;8.530;2024-01-30T12:25:13;15.87;;;8.53;;
5801;SDS011;2927;49.366;8.530;2024-01-30T12:27:44;10.70;;;7.17;;
5801;SDS011;2927;49.366;8.530;2024-01-30T12:30:17;10.03;;;6.33;;
5801;SDS011;2927;49.366;8.530;2024-01-30T12:32:45;13.63;;;7.63;;
5801;SDS011;2927;49.366;8.530;2024-01-30T12:35:12;11.87;;;7.60;;
5801;SDS011;2927;49.366;8.530;2024-01-30T12:37:42;10.67;;;7.00;;
5801;SDS011;2927;49.366;8.530;2024-01-30T12:40:09;11.93;;;6.60;;
5801;SDS011;2927;49.366;8.530;2024-01-30T12:42:36;11.83;;;6.43;;
5801;SDS011;2927;49.366;8.530;2024-01-30T12:45:02;9.23;;;6.63;;
5801;SDS011;2927;49.366;8.530;2024-01-30T12:47:29;13.03;;;6.37;;
5801;SDS011;2927;49.366;8.530;2024-01-30T12:49:54;8.77;;;6.50;;
5801;SDS011;2927;49.366;8.530;2024-01-30T12:52:20;9.50;;;6.30;;
5801;SDS011;2927;49.366;8.530;2024-01-30T12:54:47;13.87;;;6.57;;
5801;SDS011;2927;49.366;8.530;2024-01-30T12:57:13;14.73;;;7.00;;
5801;SDS011;2927;49.366;8.530;2024-01-30T12:59:38;10.43;;;6.90;;
5801;SDS011;2927;49.366;8.530;2024-01-30T13:02:04;10.57;;;6.60;;
5801;SDS011;2927;49.366;8.530;2024-01-30T13:04:30;11.00;;;6.50;;
5801;SDS011;2927;49.366;8.530;2024-01-30T13:06:56;11.20;;;6.20;;
5801;SDS011;2927;49.366;8.530;2024-01-30T13:09:23;8.50;;;5.07;;
5801;SDS011;2927;49.366;8.530;2024-01-30T13:11:49;16.50;;;6.20;;
5801;SDS011;2927;49.366;8.530;2024-01-30T13:14:16;10.67;;;5.80;;
5801;SDS011;2927;49.366;8.530;2024-01-30T13:16:41;20.63;;;7.77;;
5801;SDS011;2927;49.366;8.530;2024-01-30T13:19:07;8.53;;;5.67;;
5801;SDS011;2927;49.366;8.530;2024-01-30T13:21:32;7.07;;;5.70;;
5801;SDS011;2927;49.366;8.530;2024-01-30T13:23:58;13.87;;;7.50;;
5801;SDS011;2927;49.366;8.530;2024-01-30T13:26:23;8.20;;;6.00;;
5801;SDS011;2927;49.366;8.530;2024-01-30T13:28:49;9.10;;;6.33;;
5801;SDS011;2927;49.366;8.530;2024-01-30T13:31:15;10.80;;;6.80;;
5801;SDS011;2927;49.366;8.530;2024-01-30T13:33:40;12.40;;;6.50;;
5801;SDS011;2927;49.366;8.530;2024-01-30T13:36:07;7.03;;;5.43;;
5801;SDS011;2927;49.366;8.530;2024-01-30T13:38:33;9.23;;;6.30;;
5801;SDS011;2927;49.366;8.530;2024-01-30T13:40:59;16.23;;;6.30;;
5801;SDS011;2927;49.366;8.530;2024-01-30T13:43:25;12.43;;;6.90;;
5801;SDS011;2927;49.366;8.530;2024-01-30T13:45:51;14.27;;;7.27;;
5801;SDS011;2927;49.366;8.530;2024-01-30T13:48:16;17.90;;;8.93;;
5801;SDS011;2927;49.366;8.530;2024-01-30T13:50:42;12.43;;;7.07;;
5801;SDS011;2927;49.366;8.530;2024-01-30T13:53:07;16.13;;;6.87;;
5801;SDS011;2927;49.366;8.530;2024-01-30T13:55:33;12.83;;;6.63;;
5801;SDS011;2927;49.366;8.530;2024-01-30T13:58:00;12.07;;;6.00;;
5801;SDS011;2927;49.366;8.530;2024-01-30T14:00:26;9.90;;;5.87;;
5801;SDS011;2927;49.366;8.530;2024-01-30T14:02:52;7.70;;;4.90;;
5801;SDS011;2927;49.366;8.530;2024-01-30T14:05:20;10.23;;;5.30;;
5801;SDS011;2927;49.366;8.530;2024-01-30T14:07:46;9.63;;;5.20;;
5801;SDS011;2927;49.366;8.530;2024-01-30T14:10:12;10.13;;;5.87;;
5801;SDS011;2927;49.366;8.530;2024-01-30T14:12:38;7.80;;;5.07;;
5801;SDS011;2927;49.366;8.530;2024-01-30T14:15:03;13.83;;;5.20;;
5801;SDS011;2927;49.366;8.530;2024-01-30T14:17:29;9.63;;;5.47;;
5801;SDS011;2927;49.366;8.530;2024-01-30T14:19:55;14.73;;;6.03;;
5801;SDS011;2927;49.366;8.530;2024-01-30T14:22:20;7.80;;;5.20;;
5801;SDS011;2927;49.366;8.530;2024-01-30T14:24:46;7.87;;;4.80;;
5801;SDS011;2927;49.366;8.530;2024-01-30T14:27:12;7.43;;;5.60;;
5801;SDS011;2927;49.366;8.530;2024-01-30T14:29:37;7.80;;;5.13;;
5801;SDS011;2927;49.366;8.530;2024-01-30T14:32:03;6.23;;;4.50;;
5801;SDS011;2927;49.366;8.530;2024-01-30T14:34:29;9.40;;;5.10;;
5801;SDS011;2927;49.366;8.530;2024-01-30T14:36:55;6.90;;;4.60;;
5801;SDS011;2927;49.366;8.530;2024-01-30T14:39:21;8.30;;;5.30;;
5801;SDS011;2927;49.366;8.530;2024-01-30T14:41:47;10.60;;;5.53;;
5801;SDS011;2927;49.366;8.530;2024-01-30T14:44:12;6.50;;;4.33;;
5801;SDS011;2927;49.366;8.530;2024-01-30T14:46:38;11.23;;;4.97;;
5801;SDS011;2927;49.366;8.530;2024-01-30T14:49:04;10.57;;;5.20;;
5801;SDS011;2927;49.366;8.530;2024-01-30T14:51:31;7.93;;;4.17;;
5801;SDS011;2927;49.366;8.530;2024-01-30T14:53:57;7.03;;;4.90;;
5801;SDS011;2927;49.366;8.530;2024-01-30T14:56:24;11.60;;;3.80;;
5801;SDS011;2927;49.366;8.530;2024-01-30T14:58:50;7.73;;;4.40;;